Time;durP1;ratioP1;P1;durP2;ratioP2;P2;SDS_P1;SDS_P2;PMS_P1;PMS_P2;Temp;Humidity;BMP_temperature;BMP_pressure;BME280_temperature;BME280_humidity;BME280_pressure;Samples;Min_cycle;Max_cycle;Signal;HPM_P1;HPM_P2
2021/05/27 00:01:53;;;;;;;3.83;1.40;;;;;;;9.21;100.00;96307.00;5049765;28;20779;-73
2021/05/27 00:04:20;;;;;;;3.00;1.80;;;;;;;9.20;100.00;96311.44;5049863;28;20224;-73
2021/05/27 00:06:46;;;;;;;4.27;1.60;;;;;;;9.11;100.00;96311.63;5049282;28;20209;-73
2021/05/27 00:09:12;;;;;;;3.70;1.50;;;;;;;9.14;100.00;96306.84;5049553;28;20268;-72
2021/05/27 00:11:38;;;;;;;2.10;1.60;;;;;;;9.13;100.00;96318.34;5049375;28;20282;-72
2021/05/27 00:14:04;;;;;;;3.10;1.60;;;;;;;9.15;100.00;96312.91;5049714;28;20304;-73
2021/05/27 00:16:31;;;;;;;2.37;1.47;;;;;;;9.11;100.00;96316.88;5048217;28;20746;-72
2021/05/27 00:18:57;;;;;;;2.10;1.50;;;;;;;9.17;100.00;96305.69;5049568;28;20246;-73
2021/05/27 00:21:24;;;;;;;3.80;1.50;;;;;;;9.17;100.00;96311.75;5049118;28;20263;-72
2021/05/27 00:23:50;;;;;;;3.33;1.40;;;;;;;9.11;100.00;96309.81;5049196;28;20212;-73
2021/05/27 00:26:17;;;;;;;1.97;1.60;;;;;;;9.14;100.00;96321.81;5048950;28;20200;-72
2021/05/27 00:28:43;;;;;;;3.50;1.40;;;;;;;9.09;100.00;96324.13;5049211;28;20236;-73
2021/05/27 00:31:09;;;;;;;1.50;1.07;;;;;;;9.00;100.00;96327.75;5049321;28;20205;-72
2021/05/27 00:33:36;;;;;;;2.37;1.40;;;;;;;9.00;100.00;96325.09;5049060;28;20601;-72
2021/05/27 00:36:03;;;;;;;2.07;1.50;;;;;;;8.89;100.00;96317.53;5048802;28;20220;-73
2021/05/27 00:38:30;;;;;;;3.33;1.43;;;;;;;8.92;100.00;96322.47;5048931;28;20478;-72
2021/05/27 00:40:56;;;;;;;2.20;1.33;;;;;;;8.90;100.00;96329.72;5048921;28;20201;-72
2021/05/27 00:43:22;;;;;;;2.70;1.43;;;;;;;8.89;100.00;96332.50;5049168;28;20296;-72
2021/05/27 00:45:48;;;;;;;3.30;1.60;;;;;;;8.88;100.00;96325.59;5048645;28;20721;-72
2021/05/27 00:50:54;;;;;;;3.23;1.43;;;;;;;8.87;100.00;96337.09;5048460;28;20678;-73
2021/05/27 00:53:21;;;;;;;2.47;1.60;;;;;;;8.81;100.00;96335.13;5048884;28;20343;-73
2021/05/27 00:55:48;;;;;;;3.97;1.60;;;;;;;8.79;100.00;96327.38;5048789;28;20193;-72
2021/05/27 00:58:16;;;;;;;2.03;1.37;;;;;;;8.80;100.00;96338.75;5049028;28;20205;-72
2021/05/27 01:00:42;;;;;;;4.03;1.50;;;;;;;8.69;100.00;96337.25;5048695;28;20749;-72
2021/05/27 01:03:08;;;;;;;2.20;1.53;;;;;;;8.78;100.00;96333.66;5048995;28;20217;-73
2021/05/27 01:05:35;;;;;;;5.87;1.60;;;;;;;8.80;100.00;96325.59;5047995;28;20346;-73
2021/05/27 01:08:02;;;;;;;3.30;1.90;;;;;;;8.82;100.00;96331.50;5048524;28;20727;-72
2021/05/27 01:10:28;;;;;;;5.33;2.27;;;;;;;8.79;100.00;96332.66;5048492;28;20201;-73
2021/05/27 01:12:56;;;;;;;4.90;1.70;;;;;;;8.89;100.00;96332.50;5048397;28;20735;-74
2021/05/27 01:15:31;;;;;;;4.97;1.70;;;;;;;8.98;100.00;96328.88;5048107;28;20209;-73
2021/05/27 01:17:59;;;;;;;2.10;1.60;;;;;;;9.00;100.00;96340.88;5048497;28;20671;-73
2021/05/27 01:20:25;;;;;;;2.20;1.57;;;;;;;8.98;100.00;96334.94;5048455;28;20212;-73
2021/05/27 01:22:52;;;;;;;8.47;1.73;;;;;;;8.98;100.00;96332.31;5048231;28;20228;-73
2021/05/27 01:25:18;;;;;;;2.00;1.60;;;;;;;8.97;100.00;96330.69;5048415;28;20571;-72
2021/05/27 01:27:44;;;;;;;3.03;2.03;;;;;;;8.97;100.00;96335.94;5048020;28;20691;-73
2021/05/27 01:30:11;;;;;;;2.37;1.50;;;;;;;8.91;100.00;96341.88;5048508;28;20247;-73
2021/05/27 01:32:38;;;;;;;3.77;1.63;;;;;;;8.87;100.00;96340.56;5048199;28;20734;-73
2021/05/27 01:35:12;;;;;;;2.57;1.70;;;;;;;8.98;100.00;96342.03;5048232;28;20197;-73
2021/05/27 01:37:39;;;;;;;3.53;1.90;;;;;;;9.01;100.00;96334.63;5048506;28;20219;-72
2021/05/27 01:40:07;;;;;;;2.80;2.00;;;;;;;8.92;100.00;96340.84;5048407;28;20292;-73
2021/05/27 01:42:33;;;;;;;3.27;1.80;;;;;;;8.88;100.00;96346.63;5048331;28;20232;-73
2021/05/27 01:44:59;;;;;;;2.07;1.57;;;;;;;8.91;100.00;96351.53;5048103;28;20201;-74
2021/05/27 01:47:25;;;;;;;3.43;1.63;;;;;;;8.87;100.00;96344.97;5047988;28;20209;-72
2021/05/27 01:49:51;;;;;;;3.30;1.90;;;;;;;8.93;100.00;96350.38;5048151;28;20262;-73
2021/05/27 01:52:17;;;;;;;2.13;1.70;;;;;;;8.87;100.00;96340.56;5048273;28;20221;-73
2021/05/27 01:54:43;;;;;;;2.60;1.90;;;;;;;8.95;100.00;96337.91;5048306;28;20250;-73
2021/05/27 01:57:10;;;;;;;5.63;1.70;;;;;;;9.03;100.00;96347.63;5048004;28;20209;-73
2021/05/27 01:59:37;;;;;;;3.27;1.80;;;;;;;8.93;100.00;96352.22;5048119;28;20197;-73
2021/05/27 02:02:03;;;;;;;5.00;2.00;;;;;;;8.97;100.00;96346.44;5047922;28;20278;-73
2021/05/27 02:04:29;;;;;;;3.77;2.10;;;;;;;8.92;100.00;96353.19;5048188;28;20198;-73
2021/05/27 02:06:55;;;;;;;4.53;2.40;;;;;;;8.93;100.00;96360.09;5047872;28;20207;-73
2021/05/27 02:09:21;;;;;;;4.10;2.20;;;;;;;9.02;100.00;96353.84;5048182;28;20601;-73
2021/05/27 02:11:48;;;;;;;4.67;2.20;;;;;;;8.85;100.00;96350.41;5047891;28;20209;-73
2021/05/27 02:14:16;;;;;;;4.90;2.30;;;;;;;8.84;100.00;96348.75;5047899;28;20202;-73
2021/05/27 02:16:44;;;;;;;4.50;2.30;;;;;;;8.88;100.00;96350.06;5047481;28;20212;-73
2021/05/27 02:19:11;;;;;;;6.70;2.30;;;;;;;8.81;100.00;96351.72;5046866;28;21123;-73
2021/05/27 02:21:37;;;;;;;3.50;2.17;;;;;;;8.82;100.00;96348.09;5047802;28;20274;-73
2021/05/27 02:24:06;;;;;;;5.17;2.20;;;;;;;8.80;100.00;96341.38;5047900;28;20658;-73
2021/05/27 02:26:32;;;;;;;4.23;2.00;;;;;;;8.75;100.00;96333.16;5047670;28;20205;-73
2021/05/27 02:29:00;;;;;;;3.13;2.00;;;;;;;8.73;100.00;96335.09;5047951;28;20221;-73
2021/05/27 02:31:27;;;;;;;4.53;2.33;;;;;;;8.75;100.00;96347.09;5048106;28;20575;-73
2021/05/27 02:33:54;;;;;;;5.87;2.50;;;;;;;8.68;100.00;96346.13;5047502;28;20201;-72
2021/05/27 02:36:20;;;;;;;4.27;2.23;;;;;;;8.68;100.00;96350.53;5047336;28;20201;-73
2021/05/27 02:38:47;;;;;;;5.73;2.50;;;;;;;8.75;100.00;96356.78;5048038;28;20209;-73
2021/05/27 02:41:13;;;;;;;4.20;2.20;;;;;;;8.79;100.00;96353.66;5051178;28;20193;-73
2021/05/27 02:43:39;;;;;;;4.43;2.30;;;;;;;8.86;100.00;96354.66;5051389;28;20585;-74
2021/05/27 02:46:05;;;;;;;4.83;2.10;;;;;;;8.81;100.00;96361.41;5050407;28;20209;-73
2021/05/27 02:48:32;;;;;;;5.23;2.87;;;;;;;8.80;100.00;96370.28;5051021;28;20229;-73
2021/05/27 02:51:00;;;;;;;4.20;2.17;;;;;;;8.75;100.00;96368.13;5051067;28;20220;-72
2021/05/27 02:53:26;;;;;;;4.10;2.40;;;;;;;8.75;100.00;96370.75;5051452;28;20641;-73
2021/05/27 02:55:52;;;;;;;6.13;2.53;;;;;;;8.73;100.00;96364.00;5050949;28;20212;-73
2021/05/27 02:58:19;;;;;;;6.37;2.83;;;;;;;8.76;100.00;96359.25;5051196;28;20239;-73
2021/05/27 03:00:45;;;;;;;4.30;2.60;;;;;;;8.66;100.00;96365.66;5050753;28;20679;-73
2021/05/27 03:03:11;;;;;;;4.40;2.50;;;;;;;8.59;100.00;96357.59;5050879;28;20227;-73
2021/05/27 03:05:38;;;;;;;3.90;2.43;;;;;;;8.69;100.00;96363.53;5050530;28;20200;-73
2021/05/27 03:08:05;;;;;;;4.80;2.27;;;;;;;8.69;100.00;96367.94;5050752;28;20225;-73
2021/05/27 03:10:31;;;;;;;5.43;2.40;;;;;;;8.76;100.00;96364.50;5050937;28;20274;-72
2021/05/27 03:12:57;;;;;;;4.33;2.53;;;;;;;8.79;100.00;96363.38;5050608;28;20274;-73
2021/05/27 03:15:23;;;;;;;3.77;2.43;;;;;;;8.71;100.00;96355.47;5050425;28;20216;-73
2021/05/27 03:17:49;;;;;;;4.90;2.40;;;;;;;8.72;100.00;96363.19;5050478;28;20216;-73
2021/05/27 03:20:15;;;;;;;4.60;2.20;;;;;;;8.72;100.00;96357.13;5050449;28;20204;-73
2021/05/27 03:22:42;;;;;;;4.90;2.50;;;;;;;8.71;100.00;96372.06;5050556;28;20232;-73
2021/05/27 03:25:09;;;;;;;5.00;2.57;;;;;;;8.59;100.00;96368.09;5050342;28;20882;-73
2021/05/27 03:27:35;;;;;;;4.00;2.50;;;;;;;8.52;100.00;96364.47;5050445;28;20201;-73
2021/05/27 03:30:01;;;;;;;8.40;2.60;;;;;;;8.62;100.00;96372.22;5050493;28;20225;-73
2021/05/27 03:32:27;;;;;;;8.07;3.43;;;;;;;8.53;100.00;96368.75;5050250;28;20228;-73
2021/05/27 03:34:53;;;;;;;10.13;4.00;;;;;;;8.61;100.00;96355.63;5050593;28;20202;-74
2021/05/27 03:37:19;;;;;;;11.47;3.43;;;;;;;8.60;100.00;96359.25;5050395;28;20226;-73
2021/05/27 03:42:27;;;;;;;6.30;3.33;;;;;;;8.62;100.00;96367.78;5049868;28;20217;-73
2021/05/27 03:44:53;;;;;;;7.63;3.10;;;;;;;8.70;100.00;96365.16;5049718;28;20708;-73
2021/05/27 03:47:19;;;;;;;6.20;3.17;;;;;;;8.69;100.00;96368.78;5049823;28;20209;-73
2021/05/27 03:49:45;;;;;;;4.80;3.00;;;;;;;8.67;100.00;96357.59;5049931;28;20657;-73
2021/05/27 03:52:10;;;;;;;5.37;3.00;;;;;;;8.69;100.00;96357.44;5049928;28;20300;-73
2021/05/27 03:54:36;;;;;;;8.40;2.77;;;;;;;8.59;100.00;96357.59;5050078;28;20201;-73
2021/05/27 03:57:04;;;;;;;9.87;2.80;;;;;;;8.57;100.00;96372.69;5049796;28;20201;-73
2021/05/27 04:02:14;;;;;;;8.70;3.03;;;;;;;8.65;100.00;96377.13;5049740;28;20228;-73
2021/05/27 04:07:26;;;;;;;5.20;3.70;;;;;;;8.67;100.00;96365.47;5049522;28;20579;-72
2021/05/27 04:09:52;;;;;;;7.43;3.23;;;;;;;8.73;100.00;96374.50;5049265;28;20221;-73
2021/05/27 04:15:26;;;;;;;5.53;3.07;;;;;;;8.75;100.00;96370.75;5049208;28;20302;-73
2021/05/27 04:17:55;;;;;;;5.87;3.50;;;;;;;8.65;100.00;96382.38;5049491;28;20208;-73
2021/05/27 04:20:22;;;;;;;9.10;4.70;;;;;;;8.65;100.00;96367.44;5049449;28;20558;-73
2021/05/27 04:22:48;;;;;;;11.50;4.77;;;;;;;8.74;100.00;96374.34;5049231;28;20255;-73
2021/05/27 04:25:15;;;;;;;9.60;4.30;;;;;;;8.61;100.00;96371.38;5049301;28;20197;-73
2021/05/27 04:27:43;;;;;;;9.33;4.70;;;;;;;8.54;100.00;96364.31;5049247;28;20243;-73
2021/05/27 04:30:14;;;;;;;12.50;6.73;;;;;;;8.63;100.00;96363.31;5049363;28;20197;-73
2021/05/27 04:32:55;;;;;;;11.80;6.93;;;;;;;8.74;100.00;96369.09;5049289;28;20277;-73
2021/05/27 04:35:23;;;;;;;12.33;7.83;;;;;;;8.93;100.00;96376.66;5048786;28;20209;-73
2021/05/27 04:37:50;;;;;;;12.10;6.57;;;;;;;8.81;100.00;96382.44;5049012;28;20256;-73
2021/05/27 04:40:16;;;;;;;16.63;8.33;;;;;;;8.83;100.00;96390.94;5048923;28;20208;-73
2021/05/27 04:42:43;;;;;;;18.13;10.20;;;;;;;8.88;100.00;96394.72;5048959;28;20240;-73
2021/05/27 04:45:10;;;;;;;13.90;8.37;;;;;;;8.82;100.00;96384.03;5048752;28;20201;-73
2021/05/27 04:47:36;;;;;;;14.43;7.97;;;;;;;8.80;100.00;96394.72;5048784;28;20748;-73
2021/05/27 04:50:04;;;;;;;18.13;10.07;;;;;;;8.74;100.00;96395.38;5049031;28;20225;-73
2021/05/27 04:52:30;;;;;;;18.30;10.10;;;;;;;8.81;100.00;96391.13;5048329;28;20233;-73
2021/05/27 04:54:56;;;;;;;10.33;6.50;;;;;;;8.88;100.00;96383.41;5048599;28;20212;-72
2021/05/27 04:57:22;;;;;;;13.23;5.83;;;;;;;8.86;100.00;96388.84;5048437;28;20212;-73
2021/05/27 04:59:49;;;;;;;12.03;6.30;;;;;;;8.89;100.00;96396.38;5048756;28;20276;-73
2021/05/27 05:02:15;;;;;;;10.90;6.07;;;;;;;8.92;100.00;96401.28;5048100;28;20213;-73
2021/05/27 05:04:41;;;;;;;7.70;3.97;;;;;;;8.91;100.00;96410.19;5048588;28;20213;-73
2021/05/27 05:07:07;;;;;;;5.10;3.73;;;;;;;8.88;100.00;96399.97;5048353;28;20201;-73
2021/05/27 05:09:33;;;;;;;6.03;3.73;;;;;;;8.88;100.00;96405.25;5048549;28;20270;-73
2021/05/27 05:11:59;;;;;;;5.33;3.20;;;;;;;8.84;100.00;96411.00;5048536;28;20247;-72
2021/05/27 05:14:25;;;;;;;4.90;3.40;;;;;;;8.98;100.00;96415.63;5048388;28;20212;-73
2021/05/27 05:16:52;;;;;;;4.47;3.40;;;;;;;9.02;100.00;96420.38;5048296;28;20224;-72
2021/05/27 05:19:18;;;;;;;5.00;3.03;;;;;;;8.91;100.00;96420.69;5048336;28;20205;-73
2021/05/27 05:21:44;;;;;;;7.33;2.60;;;;;;;8.88;100.00;96425.44;5048354;28;20256;-72
2021/05/27 05:24:10;;;;;;;7.87;3.57;;;;;;;8.86;100.00;96425.63;5048570;28;20205;-72
2021/05/27 05:26:36;;;;;;;11.43;4.93;;;;;;;8.92;100.00;96418.88;5048132;28;20205;-72
2021/05/27 05:29:02;;;;;;;7.47;4.60;;;;;;;8.87;100.00;96419.38;5048311;28;20282;-72
2021/05/27 05:31:28;;;;;;;5.50;3.10;;;;;;;8.93;100.00;96417.91;5048075;28;20208;-72
2021/05/27 05:33:55;;;;;;;3.17;2.80;;;;;;;8.99;100.00;96427.78;5048621;28;20205;-72
2021/05/27 05:36:21;;;;;;;3.93;2.90;;;;;;;9.03;100.00;96416.75;5048299;28;20229;-72
2021/05/27 05:38:48;;;;;;;3.67;2.80;;;;;;;9.11;100.00;96416.75;5048401;28;20193;-72
2021/05/27 05:41:14;;;;;;;8.63;3.03;;;;;;;9.10;100.00;96420.41;5048319;28;20271;-72
2021/05/27 05:43:40;;;;;;;6.70;3.40;;;;;;;9.15;100.00;96420.69;5048120;28;20213;-72
2021/05/27 05:46:06;;;;;;;8.97;4.33;;;;;;;9.18;100.00;96428.28;5047920;28;20232;-72
2021/05/27 05:48:32;;;;;;;6.87;4.50;;;;;;;9.30;100.00;96422.50;5048346;28;20224;-72
2021/05/27 05:51:00;;;;;;;3.50;2.73;;;;;;;9.36;100.00;96423.69;5048500;28;20224;-72
2021/05/27 05:53:26;;;;;;;12.57;4.83;;;;;;;9.34;100.00;96426.47;5047845;28;20229;-72
2021/05/27 05:55:53;;;;;;;11.43;3.57;;;;;;;9.41;100.00;96431.91;5047944;28;20201;-72
2021/05/27 05:58:20;;;;;;;6.20;2.80;;;;;;;9.51;100.00;96435.16;5048153;28;20189;-72
2021/05/27 06:00:47;;;;;;;6.40;1.93;;;;;;;9.55;100.00;96433.88;5048220;28;20201;-72
2021/05/27 06:03:13;;;;;;;5.43;2.73;;;;;;;9.68;100.00;96447.34;5048254;28;20244;-72
2021/05/27 06:05:40;;;;;;;10.30;3.97;;;;;;;9.88;100.00;96444.97;5047911;28;20581;-72
2021/05/27 06:08:06;;;;;;;7.03;3.10;;;;;;;9.94;100.00;96448.75;5048056;28;20562;-72
2021/05/27 06:10:32;;;;;;;3.97;2.00;;;;;;;9.93;100.00;96453.19;5047768;28;20205;-72
2021/05/27 06:12:58;;;;;;;3.17;2.00;;;;;;;9.98;100.00;96458.81;5047899;28;20225;-72
2021/05/27 06:15:25;;;;;;;3.03;1.87;;;;;;;10.06;100.00;96453.53;5049748;28;21050;-72
2021/05/27 06:17:52;;;;;;;3.03;1.80;;;;;;;9.91;100.00;96449.91;5051877;28;20209;-72
2021/05/27 06:20:20;;;;;;;3.23;1.60;;;;;;;9.93;100.00;96457.66;5051821;28;20205;-72
2021/05/27 06:22:46;;;;;;;3.03;1.80;;;;;;;9.97;100.00;96457.16;5051746;28;20797;-72
2021/05/27 06:25:14;;;;;;;4.37;1.90;;;;;;;9.81;100.00;96454.56;5051355;28;20694;-72
2021/05/27 06:27:40;;;;;;;5.13;2.13;;;;;;;9.91;100.00;96455.16;5051391;28;20211;-73
2021/05/27 06:30:08;;;;;;;2.00;1.77;;;;;;;9.81;100.00;96458.97;5051800;28;20221;-72
2021/05/27 06:32:36;;;;;;;2.33;1.60;;;;;;;9.72;100.00;96460.81;5051201;28;20236;-72
2021/05/27 06:35:02;;;;;;;2.03;1.83;;;;;;;9.84;100.00;96453.41;5051447;28;20343;-72
2021/05/27 06:37:28;;;;;;;4.33;1.80;;;;;;;9.76;100.00;96456.00;5051330;28;20224;-72
2021/05/27 06:39:54;;;;;;;3.53;1.83;;;;;;;9.76;100.00;96461.28;5051184;28;20193;-72
2021/05/27 06:42:21;;;;;;;2.87;1.90;;;;;;;9.74;100.00;96473.78;5051094;28;20604;-71
2021/05/27 06:44:48;;;;;;;5.07;1.80;;;;;;;9.55;100.00;96470.69;5051418;28;20209;-72
2021/05/27 06:47:14;;;;;;;3.80;2.20;;;;;;;9.63;100.00;96475.94;5050978;28;20766;-73
2021/05/27 06:49:40;;;;;;;2.40;1.80;;;;;;;9.49;100.00;96474.78;5051083;28;20236;-72
2021/05/27 06:52:07;;;;;;;3.23;1.60;;;;;;;9.46;100.00;96475.13;5051425;28;20269;-72
2021/05/27 06:54:35;;;;;;;2.53;1.87;;;;;;;9.62;100.00;96474.28;5051098;28;20201;-72
2021/05/27 06:57:01;;;;;;;3.47;1.73;;;;;;;9.46;100.00;96484.84;5050679;28;20228;-72
2021/05/27 06:59:28;;;;;;;2.07;1.77;;;;;;;9.50;100.00;96483.50;5051159;28;20208;-72
2021/05/27 07:01:54;;;;;;;2.50;1.60;;;;;;;9.45;100.00;96477.91;5051076;28;20623;-71
2021/05/27 07:04:20;;;;;;;3.97;1.80;;;;;;;9.63;100.00;96476.75;5050737;28;20211;-72
2021/05/27 07:06:47;;;;;;;2.47;1.80;;;;;;;9.72;100.00;96481.03;5044609;28;20310;-71
2021/05/27 07:09:13;;;;;;;3.10;1.73;;;;;;;9.81;100.00;96486.13;5043445;28;20722;-72
2021/05/27 07:11:39;;;;;;;6.17;2.37;;;;;;;9.99;100.00;96484.16;5049364;28;20228;-72
2021/05/27 07:14:05;;;;;;;7.17;3.60;;;;;;;10.16;100.00;96488.41;5050964;28;20205;-72
2021/05/27 07:16:33;;;;;;;10.20;5.13;;;;;;;10.14;100.00;96489.56;5050431;28;20683;-71
2021/05/27 07:18:59;;;;;;;6.57;3.57;;;;;;;10.04;100.00;96487.13;5050682;28;20213;-70
2021/05/27 07:21:25;;;;;;;3.73;2.57;;;;;;;9.92;100.00;96490.22;5050556;28;20197;-71
2021/05/27 07:23:51;;;;;;;6.77;3.50;;;;;;;9.98;100.00;96489.56;5050089;28;20714;-70
2021/05/27 07:26:17;;;;;;;4.80;2.10;;;;;;;10.06;100.00;96494.84;5049906;28;20206;-72
2021/05/27 07:28:43;;;;;;;4.50;2.20;;;;;;;9.92;100.00;96492.84;5050513;28;20756;-72
2021/05/27 07:31:09;;;;;;;5.77;2.87;;;;;;;10.29;100.00;96485.25;5050538;28;20280;-72
2021/05/27 07:33:36;;;;;;;7.93;3.47;;;;;;;10.34;100.00;96486.38;5049800;28;20958;-73
2021/05/27 07:36:04;;;;;;;6.53;3.93;;;;;;;10.18;100.00;96481.13;5050139;28;20201;-72
2021/05/27 07:38:30;;;;;;;5.40;3.00;;;;;;;10.19;100.00;96487.25;5049986;28;20193;-72
2021/05/27 07:40:56;;;;;;;3.87;3.10;;;;;;;10.20;100.00;96489.69;5050329;28;20561;-72
2021/05/27 07:43:22;;;;;;;10.37;3.10;;;;;;;10.51;100.00;96493.22;5050227;28;20220;-71
2021/05/27 07:45:48;;;;;;;3.10;2.30;;;;;;;10.75;100.00;96485.22;5049460;28;20208;-72
2021/05/27 07:48:14;;;;;;;7.10;2.53;;;;;;;10.77;100.00;96486.69;5050080;28;20660;-72
2021/05/27 07:50:40;;;;;;;5.33;3.27;;;;;;;10.76;100.00;96484.22;5050001;28;20205;-72
2021/05/27 07:53:09;;;;;;;4.83;2.97;;;;;;;10.85;100.00;96488.47;5049785;28;20224;-72
2021/05/27 07:55:35;;;;;;;5.80;2.60;;;;;;;10.88;100.00;96483.66;5049526;28;20202;-72
2021/05/27 07:58:01;;;;;;;5.20;2.70;;;;;;;10.66;100.00;96484.44;5050098;28;20247;-72
2021/05/27 08:00:27;;;;;;;3.47;2.43;;;;;;;10.85;100.00;96481.38;5049805;28;20574;-72
2021/05/27 08:02:53;;;;;;;5.87;2.73;;;;;;;11.12;100.00;96476.41;5049680;28;20221;-71
2021/05/27 08:05:20;;;;;;;4.83;2.40;;;;;;;11.04;100.00;96479.13;5049584;28;20212;-71
2021/05/27 08:07:48;;;;;;;3.57;2.30;;;;;;;10.80;100.00;96486.34;5049528;28;20200;-72
2021/05/27 08:10:14;;;;;;;4.67;3.13;;;;;;;10.90;100.00;96475.59;5049410;28;20717;-72
2021/05/27 08:12:40;;;;;;;4.47;2.90;;;;;;;11.17;100.00;96484.63;5049218;28;20502;-71
2021/05/27 08:15:07;;;;;;;6.20;3.10;;;;;;;11.22;100.00;96484.94;5049270;28;20213;-72
2021/05/27 08:17:34;;;;;;;5.70;2.30;;;;;;;11.29;100.00;96477.97;5049154;28;20207;-72
2021/05/27 08:20:00;;;;;;;3.67;2.23;;;;;;;11.61;100.00;96493.59;5049490;28;20194;-72
2021/05/27 08:22:27;;;;;;;3.43;2.33;;;;;;;11.89;100.00;96487.59;5049215;28;20240;-72
2021/05/27 08:24:54;;;;;;;3.63;2.67;;;;;;;12.05;100.00;96479.50;5049190;28;20197;-72
2021/05/27 08:27:20;;;;;;;6.20;2.60;;;;;;;12.09;100.00;96483.41;5049231;28;20205;-73
2021/05/27 08:29:46;;;;;;;6.47;3.13;;;;;;;12.01;100.00;96474.78;5048938;28;20239;-72
2021/05/27 08:32:12;;;;;;;3.73;2.53;;;;;;;12.06;100.00;96480.34;5048847;28;20304;-72
2021/05/27 08:34:39;;;;;;;4.13;2.37;;;;;;;11.96;100.00;96477.13;5048881;28;20668;-72
2021/05/27 08:37:06;;;;;;;2.87;2.50;;;;;;;11.88;100.00;96475.38;5048335;28;20201;-72
2021/05/27 08:39:32;;;;;;;5.40;2.87;;;;;;;11.88;99.97;96479.84;5048876;28;20660;-72
2021/05/27 08:42:00;;;;;;;5.73;2.90;;;;;;;12.09;97.23;96478.13;5049000;28;20699;-72
2021/05/27 08:44:26;;;;;;;3.50;2.57;;;;;;;12.25;95.13;96468.22;5049141;28;20282;-71
2021/05/27 08:46:52;;;;;;;5.80;3.03;;;;;;;12.45;98.45;96471.97;5047711;28;20204;-72
2021/05/27 08:49:18;;;;;;;2.72;2.20;;;;;;;12.27;96.09;96482.09;5048682;28;20259;-72
2021/05/27 08:51:45;;;;;;;4.00;2.70;;;;;;;12.34;97.81;96482.19;5048777;28;20229;-72
2021/05/27 08:54:11;;;;;;;5.18;2.70;;;;;;;12.16;97.30;96478.25;5048932;28;20204;-73
2021/05/27 08:56:37;;;;;;;3.53;2.50;;;;;;;12.16;99.52;96473.78;5048314;28;20205;-72
2021/05/27 08:59:06;;;;;;;8.03;2.83;;;;;;;12.31;94.78;96477.25;5048786;28;20205;-71
2021/05/27 09:01:32;;;;;;;3.85;2.10;;;;;;;12.56;94.24;96482.06;5048734;28;20212;-72
2021/05/27 09:03:58;;;;;;;2.88;2.00;;;;;;;12.60;89.33;96475.44;5048552;28;20259;-72
2021/05/27 09:06:24;;;;;;;2.63;1.88;;;;;;;12.84;88.71;96464.53;5048706;28;20292;-71
2021/05/27 09:09:04;;;;;;;4.55;2.28;;;;;;;13.48;90.56;96467.13;5048629;28;20221;-73
2021/05/27 09:11:36;;;;;;;2.53;1.73;;;;;;;13.64;85.25;96465.03;5048609;28;20204;-73
2021/05/27 09:14:03;;;;;;;4.03;2.20;;;;;;;13.74;83.99;96470.03;5048691;28;20204;-73
2021/05/27 09:16:30;;;;;;;3.13;1.73;;;;;;;13.65;83.48;96471.16;5048132;28;20600;-72
2021/05/27 09:19:11;;;;;;;3.28;2.10;;;;;;;14.02;86.60;96466.38;5048720;28;20624;-72
2021/05/27 09:21:42;;;;;;;5.00;2.22;;;;;;;13.82;92.03;96478.63;5048790;28;20224;-73
2021/05/27 09:24:08;;;;;;;3.47;2.22;;;;;;;13.59;91.75;96478.03;5048541;28;20592;-72
2021/05/27 09:26:49;;;;;;;3.45;2.00;;;;;;;12.87;89.00;96490.66;5048213;28;20216;-71
2021/05/27 09:29:15;;;;;;;2.50;2.10;;;;;;;12.64;90.39;96499.66;5048317;28;20220;-72
2021/05/27 09:31:57;;;;;;;6.10;2.33;;;;;;;12.85;92.15;96495.28;5048463;28;20308;-72
2021/05/27 09:34:40;;;;;;;4.78;2.35;;;;;;;12.60;92.34;96496.59;5048609;28;20205;-72
2021/05/27 09:37:06;;;;;;;4.88;2.75;;;;;;;12.86;95.59;96484.53;5047997;28;20624;-73
2021/05/27 09:39:39;;;;;;;3.97;2.40;;;;;;;12.95;94.15;96493.19;5048175;28;20292;-72
2021/05/27 09:42:08;;;;;;;6.32;2.35;;;;;;;12.98;93.60;96488.38;5048552;28;20231;-72
2021/05/27 09:44:35;;;;;;;7.82;2.60;;;;;;;12.76;93.73;96493.75;5048341;28;20236;-72
2021/05/27 09:47:03;;;;;;;4.10;2.22;;;;;;;12.60;93.69;96493.94;5048005;28;21154;-72
2021/05/27 09:49:29;;;;;;;4.22;2.35;;;;;;;12.56;93.67;96503.22;5050594;28;21164;-72
2021/05/27 09:51:57;;;;;;;4.18;2.03;;;;;;;12.51;91.39;96487.13;5052116;28;20699;-72
2021/05/27 09:54:23;;;;;;;3.33;2.25;;;;;;;12.62;92.58;96496.41;5052437;28;20209;-72
2021/05/27 09:56:49;;;;;;;3.30;1.80;;;;;;;12.44;89.54;96502.03;5051796;28;20671;-72
2021/05/27 09:59:16;;;;;;;4.10;1.87;;;;;;;12.53;88.35;96498.31;5051962;28;20246;-72
2021/05/27 10:02:15;;;;;;;12.00;1.95;;;;;;;13.12;83.73;96494.63;5051788;28;20220;-72
2021/05/27 10:05:03;;;;;;;3.63;2.30;;;;;;;13.55;84.23;96497.94;5052041;28;20288;-73
2021/05/27 10:07:34;;;;;;;2.45;1.85;;;;;;;13.86;85.24;96484.38;5051839;28;20270;-72
2021/05/27 10:10:00;;;;;;;1.85;1.73;;;;;;;13.30;81.39;96487.09;5051984;28;20225;-72
2021/05/27 10:12:26;;;;;;;3.25;1.83;;;;;;;13.56;79.93;96480.25;5051940;28;20229;-72
2021/05/27 10:14:53;;;;;;;3.30;2.00;;;;;;;13.98;84.90;96488.97;5051740;28;20209;-72
2021/05/27 10:17:21;;;;;;;2.55;1.73;;;;;;;14.30;81.78;96483.94;5052072;28;20218;-73
2021/05/27 10:19:48;;;;;;;2.58;1.70;;;;;;;14.36;74.28;96480.53;5052164;28;20205;-73
2021/05/27 10:22:15;;;;;;;1.08;0.98;;;;;;;14.11;73.69;96483.81;5051840;28;20244;-73
2021/05/27 10:24:42;;;;;;;5.30;1.33;;;;;;;14.19;73.81;96481.00;5051807;28;20205;-72
2021/05/27 10:27:08;;;;;;;2.95;1.60;;;;;;;14.42;72.04;96473.63;5051356;28;20729;-73
2021/05/27 10:29:34;;;;;;;1.73;1.30;;;;;;;14.64;69.34;96487.41;5051746;28;20225;-73
2021/05/27 10:32:02;;;;;;;3.95;1.30;;;;;;;14.45;70.74;96487.31;5051346;28;20225;-73
2021/05/27 10:34:46;;;;;;;4.40;1.70;;;;;;;15.02;73.14;96475.38;5051652;28;20279;-73
2021/05/27 10:37:12;;;;;;;2.90;1.50;;;;;;;15.20;70.61;96461.53;5051174;28;20204;-73
2021/05/27 10:39:39;;;;;;;1.63;1.40;;;;;;;15.55;72.87;96463.91;5051302;28;20205;-73
2021/05/27 10:42:06;;;;;;;2.03;1.83;;;;;;;15.80;77.10;96464.97;5051577;28;20217;-73
2021/05/27 10:44:33;;;;;;;2.83;1.50;;;;;;;15.92;66.68;96469.47;5050875;28;20288;-73
2021/05/27 10:47:17;;;;;;;4.03;1.90;;;;;;;16.26;69.98;96472.75;5050837;28;20204;-73
2021/05/27 10:49:51;;;;;;;3.95;1.48;;;;;;;16.06;69.92;96471.09;5051103;28;20221;-73
2021/05/27 10:52:44;;;;;;;2.20;1.20;;;;;;;15.22;64.38;96470.16;5050909;28;20591;-73
2021/05/27 10:55:55;;;;;;;5.63;1.42;;;;;;;15.19;68.14;96463.38;5050921;28;20193;-73
2021/05/27 10:59:10;;;;;;;7.70;3.47;;;;;;;15.34;70.46;96469.38;5050893;28;20875;-72
2021/05/27 11:01:55;;;;;;;6.18;1.80;;;;;;;15.26;69.59;96461.56;5049957;28;21583;-73
2021/05/27 11:04:42;;;;;;;2.42;1.50;;;;;;;14.75;70.43;96467.47;5051007;28;20216;-73
2021/05/27 11:07:20;;;;;;;4.55;2.35;;;;;;;15.00;71.85;96461.47;5050502;28;20577;-73
2021/05/27 11:09:48;;;;;;;4.20;2.05;;;;;;;15.11;75.00;96454.75;5050663;28;20741;-73
2021/05/27 11:12:20;;;;;;;4.60;2.70;;;;;;;15.41;69.30;96452.44;5050419;28;20221;-72
2021/05/27 11:15:01;;;;;;;5.28;1.73;;;;;;;15.89;66.33;96448.63;5050653;28;20213;-73
2021/05/27 11:17:28;;;;;;;3.50;1.67;;;;;;;16.23;68.62;96459.84;5049226;28;20240;-73
2021/05/27 11:19:56;;;;;;;2.10;1.60;;;;;;;15.75;66.22;96451.47;5050608;28;20197;-73
2021/05/27 11:22:56;;;;;;;3.13;1.83;;;;;;;15.37;70.41;96461.81;5050366;28;20229;-73
2021/05/27 11:25:27;;;;;;;3.00;1.83;;;;;;;15.26;73.96;96450.97;5050411;28;20212;-73
2021/05/27 11:27:54;;;;;;;4.95;2.08;;;;;;;15.00;69.48;96460.66;5050711;28;20618;-73
2021/05/27 11:30:22;;;;;;;4.80;1.50;;;;;;;14.70;73.99;96465.44;5050384;28;20715;-74
2021/05/27 11:32:50;;;;;;;2.45;1.48;;;;;;;14.50;72.27;96453.06;5050437;28;20300;-76
2021/05/27 11:35:17;;;;;;;5.53;1.75;;;;;;;14.83;72.70;96465.47;5050198;28;20638;-74
2021/05/27 11:37:44;;;;;;;3.08;1.70;;;;;;;14.91;75.51;96464.50;5050344;28;20212;-73
2021/05/27 11:40:13;;;;;;;4.68;1.70;;;;;;;14.63;74.39;96452.34;5050159;28;20193;-73
2021/05/27 11:42:40;;;;;;;5.00;1.67;;;;;;;14.77;71.05;96455.66;5050350;28;20279;-73
2021/05/27 11:45:09;;;;;;;2.90;2.00;;;;;;;14.84;72.55;96453.88;5050088;28;20212;-73
2021/05/27 11:47:35;;;;;;;3.58;1.58;;;;;;;14.67;74.03;96452.53;5050233;28;20240;-74
2021/05/27 11:50:04;;;;;;;2.40;1.50;;;;;;;14.22;73.40;96459.44;5049985;28;20225;-73